Time;durP1;ratioP1;P1;durP2;ratioP2;P2;SDS_P1;SDS_P2;PMS_P1;PMS_P2;Temp;Humidity;BMP_temperature;BMP_pressure;BME280_temperature;BME280_humidity;BME280_pressure;Samples;Min_cycle;Max_cycle;Signal;HPM_P1;HPM_P2
2022/02/13 00:01:05;;;;;;;9.88;3.85;;;;;;;;;;5029015;28;20029;-70
2022/02/13 00:03:31;;;;;;;7.75;3.35;;;;;;;;;;5029019;28;20037;-70
2022/02/13 00:05:56;;;;;;;10.15;2.58;;;;;;;;;;5031401;28;20033;-70
2022/02/13 00:08:21;;;;;;;8.95;3.60;;;;;;;;;;5033319;28;20026;-70
2022/02/13 00:10:46;;;;;;;10.15;3.72;;;;;;;;;;5031271;28;20036;-70
2022/02/13 00:13:11;;;;;;;13.07;2.83;;;;;;;;;;5013185;28;20013;-71
2022/02/13 00:15:37;;;;;;;7.60;2.78;;;;;;;;;;5029031;28;20106;-70
2022/02/13 00:18:02;;;;;;;8.55;3.15;;;;;;;;;;5030337;28;20635;-71
2022/02/13 00:20:28;;;;;;;13.60;3.22;;;;;;;;;;5030316;28;20032;-70
2022/02/13 00:22:53;;;;;;;9.35;2.80;;;;;;;;;;5029661;28;20033;-72
2022/02/13 00:25:19;;;;;;;14.07;4.93;;;;;;;;;;5029786;28;20029;-71
2022/02/13 00:27:45;;;;;;;10.27;3.25;;;;;;;;;;5029961;28;20021;-71
2022/02/13 00:30:13;;;;;;;7.63;3.35;;;;;;;;;;5029835;28;20017;-71
2022/02/13 00:32:38;;;;;;;13.45;4.03;;;;;;;;;;5029522;28;20111;-69
2022/02/13 00:35:03;;;;;;;11.02;3.10;;;;;;;;;;5028815;28;20482;-71
2022/02/13 00:37:29;;;;;;;1.20;1.10;;;;;;;;;;5032060;28;20021;-71
2022/02/13 00:39:54;;;;;;;11.48;2.80;;;;;;;;;;5039056;28;20021;-71
2022/02/13 00:42:19;;;;;;;11.63;3.60;;;;;;;;;;5029794;28;20076;-71
2022/02/13 00:44:44;;;;;;;8.90;3.08;;;;;;;;;;5029652;28;20490;-70
2022/02/13 00:47:09;;;;;;;12.67;4.53;;;;;;;;;;5029223;28;20043;-70
2022/02/13 00:49:35;;;;;;;11.40;5.25;;;;;;;;;;5012144;28;20264;-71
2022/02/13 00:52:00;;;;;;;6.22;2.72;;;;;;;;;;5029177;28;20083;-72
2022/02/13 00:54:26;;;;;;;14.20;4.60;;;;;;;;;;5021125;28;20026;-71
2022/02/13 00:56:51;;;;;;;10.68;2.58;;;;;;;;;;5029742;28;20029;-71
2022/02/13 00:59:16;;;;;;;13.05;4.30;;;;;;;;;;5033771;28;20024;-70
2022/02/13 01:01:41;;;;;;;17.17;3.67;;;;;;;;;;5032973;28;20172;-71
2022/02/13 01:04:07;;;;;;;3.95;2.28;;;;;;;;;;5032852;28;20100;-70
2022/02/13 01:06:32;;;;;;;12.00;4.53;;;;;;;;;;5032652;28;20032;-71
2022/02/13 01:08:57;;;;;;;18.52;5.03;;;;;;;;;;5033276;28;20036;-69
2022/02/13 01:11:22;;;;;;;20.98;5.57;;;;;;;;;;5033431;28;20022;-71
2022/02/13 01:13:48;;;;;;;16.33;4.05;;;;;;;;;;5032850;28;20064;-70
2022/02/13 01:16:14;;;;;;;5.35;2.90;;;;;;;;;;5032774;28;20029;-72
2022/02/13 01:18:39;;;;;;;4.78;2.28;;;;;;;;;;5032696;28;20013;-72
2022/02/13 01:21:05;;;;;;;17.00;3.58;;;;;;;;;;5032733;28;20385;-71
2022/02/13 01:23:30;;;;;;;10.00;3.55;;;;;;;;;;5030500;28;20026;-71
2022/02/13 01:25:55;;;;;;;5.07;2.40;;;;;;;;;;5032212;28;20013;-72
2022/02/13 01:28:20;;;;;;;4.05;1.20;;;;;;;;;;5033647;28;20112;-69
2022/02/13 01:30:46;;;;;;;6.30;2.38;;;;;;;;;;5040846;28;20068;-70
2022/02/13 01:33:11;;;;;;;10.98;4.20;;;;;;;;;;5032800;28;20514;-71
2022/02/13 01:35:37;;;;;;;9.73;2.67;;;;;;;;;;5031477;28;20013;-71
2022/02/13 01:38:02;;;;;;;6.78;3.47;;;;;;;;;;5032524;28;20493;-71
2022/02/13 01:40:27;;;;;;;9.65;2.55;;;;;;;;;;5032490;28;20068;-70
2022/02/13 01:42:52;;;;;;;6.93;2.90;;;;;;;;;;5032126;28;20454;-71
2022/02/13 01:45:17;;;;;;;5.53;3.07;;;;;;;;;;5032735;28;20017;-71
2022/02/13 01:47:43;;;;;;;9.55;3.63;;;;;;;;;;5035384;28;20279;-71
2022/02/13 01:50:09;;;;;;;8.30;3.85;;;;;;;;;;5014321;28;20052;-71
2022/02/13 01:52:35;;;;;;;13.23;3.15;;;;;;;;;;5031555;28;20025;-71
2022/02/13 01:55:01;;;;;;;7.72;3.38;;;;;;;;;;5032602;28;20040;-72
2022/02/13 01:57:26;;;;;;;9.52;3.13;;;;;;;;;;5032123;28;20075;-71
2022/02/13 01:59:52;;;;;;;11.95;4.22;;;;;;;;;;5014331;28;20112;-71
2022/02/13 02:02:17;;;;;;;8.77;3.75;;;;;;;;;;5032495;28;20029;-70
2022/02/13 02:04:42;;;;;;;10.57;2.80;;;;;;;;;;5032523;28;20033;-71
2022/02/13 02:07:07;;;;;;;6.70;1.95;;;;;;;;;;5032156;28;20029;-70
2022/02/13 02:09:33;;;;;;;8.98;2.53;;;;;;;;;;5030371;28;20493;-71
2022/02/13 02:12:02;;;;;;;11.10;3.57;;;;;;;;;;5031416;28;20029;-70
2022/02/13 02:14:27;;;;;;;11.00;3.67;;;;;;;;;;5031820;28;20292;-71
2022/02/13 02:16:53;;;;;;;15.55;3.83;;;;;;;;;;5031209;28;20132;-70
2022/02/13 02:19:19;;;;;;;5.97;2.63;;;;;;;;;;5032547;28;20100;-70
2022/02/13 02:21:44;;;;;;;10.95;4.35;;;;;;;;;;5040094;28;20021;-71
2022/02/13 02:24:10;;;;;;;9.80;3.35;;;;;;;;;;5032246;28;20076;-71
2022/02/13 02:26:35;;;;;;;15.10;4.85;;;;;;;;;;5030976;28;20087;-71
2022/02/13 02:29:00;;;;;;;3.50;2.20;;;;;;;;;;5031083;28;20112;-71
2022/02/13 02:31:25;;;;;;;4.30;1.48;;;;;;;;;;5031579;28;20029;-71
2022/02/13 02:33:50;;;;;;;4.55;2.20;;;;;;;;;;5030660;28;20029;-71
2022/02/13 02:36:16;;;;;;;11.85;3.28;;;;;;;;;;5031824;28;20018;-71
2022/02/13 02:38:42;;;;;;;11.48;3.00;;;;;;;;;;5031881;28;20409;-72
2022/02/13 02:41:07;;;;;;;11.05;3.85;;;;;;;;;;5031486;28;20071;-71
2022/02/13 02:43:32;;;;;;;8.07;3.60;;;;;;;;;;5031968;28;20030;-69
2022/02/13 02:45:57;;;;;;;8.48;3.10;;;;;;;;;;5031183;28;20268;-71
2022/02/13 02:48:22;;;;;;;6.95;3.28;;;;;;;;;;5031089;28;20037;-71
2022/02/13 02:50:48;;;;;;;16.13;4.63;;;;;;;;;;5031189;28;20033;-72
2022/02/13 02:53:13;;;;;;;6.90;2.83;;;;;;;;;;5031186;28;20160;-71
2022/02/13 02:55:39;;;;;;;11.17;3.63;;;;;;;;;;5035685;28;20377;-71
2022/02/13 02:58:04;;;;;;;13.52;4.85;;;;;;;;;;5030962;28;20335;-71
2022/02/13 03:00:29;;;;;;;8.25;3.28;;;;;;;;;;5031160;28;20104;-70
2022/02/13 03:02:54;;;;;;;9.32;4.10;;;;;;;;;;5030217;28;20040;-72
2022/02/13 03:05:20;;;;;;;10.15;3.55;;;;;;;;;;5031045;28;20057;-68
2022/02/13 03:07:45;;;;;;;5.30;2.67;;;;;;;;;;5029718;28;20456;-71
2022/02/13 03:10:10;;;;;;;11.68;3.40;;;;;;;;;;5030927;28;20460;-71
2022/02/13 03:12:35;;;;;;;10.30;3.92;;;;;;;;;;5034057;28;20029;-71
2022/02/13 03:15:00;;;;;;;23.85;5.25;;;;;;;;;;5030402;28;20026;-71
2022/02/13 03:17:25;;;;;;;2.70;1.63;;;;;;;;;;5029866;28;20017;-69
2022/02/13 03:19:51;;;;;;;10.73;3.30;;;;;;;;;;5030737;28;20029;-71
2022/02/13 03:22:16;;;;;;;9.65;3.67;;;;;;;;;;5012534;28;20459;-69
2022/02/13 03:24:41;;;;;;;2.45;1.45;;;;;;;;;;5030166;28;20104;-71
2022/02/13 03:27:06;;;;;;;5.40;2.03;;;;;;;;;;5030126;28;20029;-71
2022/02/13 03:29:43;;;;;;;6.75;3.00;;;;;;;;;;5029580;28;20049;-71
2022/02/13 03:32:08;;;;;;;6.40;3.63;;;;;;;;;;5028235;28;20033;-69
2022/02/13 03:34:33;;;;;;;13.63;4.27;;;;;;;;;;5028989;28;20187;-70
2022/02/13 03:36:59;;;;;;;11.40;4.18;;;;;;;;;;5027818;28;20363;-70
2022/02/13 03:39:24;;;;;;;13.98;3.95;;;;;;;;;;5028893;28;20028;-70
2022/02/13 03:41:49;;;;;;;8.55;4.47;;;;;;;;;;5028957;28;20605;-70
2022/02/13 03:44:14;;;;;;;10.02;4.00;;;;;;;;;;5028744;28;20025;-69
2022/02/13 03:46:39;;;;;;;10.40;2.88;;;;;;;;;;5024011;28;20124;-69
2022/02/13 03:49:07;;;;;;;9.75;3.20;;;;;;;;;;5029616;28;20063;-69
2022/02/13 03:51:33;;;;;;;8.20;3.60;;;;;;;;;;5028968;28;20399;-69
2022/02/13 03:53:58;;;;;;;20.30;5.40;;;;;;;;;;5028013;28;20025;-69
2022/02/13 03:56:23;;;;;;;3.33;1.97;;;;;;;;;;5030075;28;20033;-69
2022/02/13 03:58:48;;;;;;;14.57;4.03;;;;;;;;;;5029681;28;20260;-69
2022/02/13 04:01:13;;;;;;;6.25;2.15;;;;;;;;;;5030544;28;20040;-70
2022/02/13 04:03:38;;;;;;;6.97;4.15;;;;;;;;;;5029469;28;20108;-70
2022/02/13 04:06:04;;;;;;;3.63;2.37;;;;;;;;;;5030916;28;20081;-70
2022/02/13 04:08:29;;;;;;;5.93;2.65;;;;;;;;;;5031949;28;20268;-69
2022/02/13 04:10:56;;;;;;;8.75;3.78;;;;;;;;;;5030767;28;20021;-69
2022/02/13 04:13:21;;;;;;;10.18;3.50;;;;;;;;;;5029735;28;20021;-69
2022/02/13 04:15:46;;;;;;;10.43;3.67;;;;;;;;;;5029827;28;20406;-69
2022/02/13 04:18:15;;;;;;;14.15;4.05;;;;;;;;;;5030435;28;20076;-69
2022/02/13 04:20:41;;;;;;;6.85;3.42;;;;;;;;;;5029894;28;20048;-69
2022/02/13 04:23:06;;;;;;;5.00;1.65;;;;;;;;;;5029812;28;20389;-69
2022/02/13 04:25:31;;;;;;;7.15;3.13;;;;;;;;;;5030198;28;20590;-70
2022/02/13 04:27:57;;;;;;;12.05;4.10;;;;;;;;;;5029891;28;20021;-69
2022/02/13 04:30:22;;;;;;;18.83;4.10;;;;;;;;;;5029595;28;20394;-72
2022/02/13 04:32:48;;;;;;;5.03;2.47;;;;;;;;;;5020567;28;20024;-69
2022/02/13 04:35:13;;;;;;;6.15;2.60;;;;;;;;;;5033742;28;20033;-70
2022/02/13 04:37:38;;;;;;;7.43;3.05;;;;;;;;;;5034172;28;20021;-68
2022/02/13 04:40:03;;;;;;;9.77;1.80;;;;;;;;;;5034910;28;20392;-69
2022/02/13 04:42:29;;;;;;;12.68;4.70;;;;;;;;;;5035399;28;20029;-72
2022/02/13 04:44:54;;;;;;;5.65;2.38;;;;;;;;;;5034951;28;20498;-68
2022/02/13 04:47:19;;;;;;;4.53;2.17;;;;;;;;;;5033354;28;20025;-72
2022/02/13 04:49:46;;;;;;;7.55;3.53;;;;;;;;;;5033131;28;20025;-68
2022/02/13 04:52:11;;;;;;;5.05;2.88;;;;;;;;;;5033396;28;20493;-70
2022/02/13 04:54:36;;;;;;;7.60;3.13;;;;;;;;;;5033890;28;20036;-68
2022/02/13 04:57:02;;;;;;;7.05;3.03;;;;;;;;;;5032809;28;20029;-69
2022/02/13 04:59:33;;;;;;;8.65;3.13;;;;;;;;;;5033571;28;20021;-68
2022/02/13 05:01:58;;;;;;;5.07;1.90;;;;;;;;;;5033305;28;20369;-68
2022/02/13 05:04:23;;;;;;;8.65;3.78;;;;;;;;;;5033307;28;20021;-70
2022/02/13 05:06:49;;;;;;;7.30;3.75;;;;;;;;;;5032680;28;20528;-68
2022/02/13 05:09:14;;;;;;;18.65;4.43;;;;;;;;;;5034899;28;20047;-71
2022/02/13 05:11:39;;;;;;;2.13;1.25;;;;;;;;;;5033767;28;20066;-68
2022/02/13 05:14:05;;;;;;;8.00;3.22;;;;;;;;;;5015869;28;20391;-69
2022/02/13 05:16:30;;;;;;;7.28;2.50;;;;;;;;;;5032143;28;20017;-72
2022/02/13 05:18:55;;;;;;;16.55;4.60;;;;;;;;;;5032703;28;20104;-68
2022/02/13 05:21:20;;;;;;;8.98;4.50;;;;;;;;;;5032175;28;20021;-70
2022/02/13 05:23:46;;;;;;;3.80;1.65;;;;;;;;;;5033681;28;20040;-68
2022/02/13 05:26:12;;;;;;;6.10;2.85;;;;;;;;;;5031570;28;20037;-71
2022/02/13 05:28:37;;;;;;;8.60;3.28;;;;;;;;;;5033353;28;20056;-68
2022/02/13 05:31:02;;;;;;;7.70;2.33;;;;;;;;;;5033019;28;20076;-72
2022/02/13 05:33:28;;;;;;;7.13;3.35;;;;;;;;;;5032169;28;20245;-69
2022/02/13 05:35:53;;;;;;;12.93;3.70;;;;;;;;;;5024545;28;20022;-70
2022/02/13 05:38:18;;;;;;;16.67;4.43;;;;;;;;;;5030851;28;20029;-68
2022/02/13 05:40:43;;;;;;;8.98;3.33;;;;;;;;;;5032376;28;20025;-69
2022/02/13 05:43:10;;;;;;;11.02;4.68;;;;;;;;;;5032123;28;20172;-69
2022/02/13 05:45:35;;;;;;;8.20;4.35;;;;;;;;;;5030963;28;20437;-72
2022/02/13 05:48:00;;;;;;;9.87;2.60;;;;;;;;;;5032566;28;20029;-68
2022/02/13 05:50:25;;;;;;;10.37;2.43;;;;;;;;;;5032858;28;20339;-72
2022/02/13 05:52:50;;;;;;;6.43;2.65;;;;;;;;;;5032156;28;20272;-70
2022/02/13 05:55:16;;;;;;;11.75;5.20;;;;;;;;;;5031235;28;20032;-70
2022/02/13 05:57:42;;;;;;;12.95;3.92;;;;;;;;;;5031995;28;20029;-70
2022/02/13 06:00:08;;;;;;;7.82;3.72;;;;;;;;;;5032102;28;20030;-70
2022/02/13 06:02:33;;;;;;;5.50;2.92;;;;;;;;;;5030337;28;20028;-70
2022/02/13 06:04:58;;;;;;;8.95;3.97;;;;;;;;;;5030259;28;20024;-70
2022/02/13 06:07:23;;;;;;;10.03;3.33;;;;;;;;;;5031299;28;20056;-70
2022/02/13 06:09:48;;;;;;;10.88;4.38;;;;;;;;;;5030882;28;20754;-70
2022/02/13 06:12:14;;;;;;;11.48;3.67;;;;;;;;;;5032247;28;20021;-70
2022/02/13 06:14:39;;;;;;;13.07;4.68;;;;;;;;;;5032001;28;20096;-70
2022/02/13 06:17:05;;;;;;;11.15;3.85;;;;;;;;;;5030860;28;20221;-70
2022/02/13 06:19:30;;;;;;;4.60;2.40;;;;;;;;;;5032596;28;20025;-70
2022/02/13 06:21:55;;;;;;;8.45;3.78;;;;;;;;;;5031767;28;20045;-70
2022/02/13 06:24:20;;;;;;;9.13;4.05;;;;;;;;;;5032142;28;20382;-70
2022/02/13 06:26:46;;;;;;;6.07;2.55;;;;;;;;;;5030828;28;20027;-70
2022/02/13 06:29:11;;;;;;;12.43;3.50;;;;;;;;;;5031896;28;20406;-70
2022/02/13 06:31:36;;;;;;;7.75;2.83;;;;;;;;;;5032157;28;20037;-70
2022/02/13 06:34:01;;;;;;;10.20;4.75;;;;;;;;;;5030801;28;20037;-70
2022/02/13 06:36:26;;;;;;;8.07;2.45;;;;;;;;;;5030631;28;20096;-70
2022/02/13 06:38:51;;;;;;;5.97;3.35;;;;;;;;;;5031477;28;20040;-70
2022/02/13 06:41:17;;;;;;;19.20;5.80;;;;;;;;;;5031495;28;20114;-70
2022/02/13 06:43:42;;;;;;;12.38;4.10;;;;;;;;;;5031845;28;20151;-70
2022/02/13 06:46:07;;;;;;;19.40;3.17;;;;;;;;;;5030565;28;20744;-70
2022/02/13 06:48:33;;;;;;;10.02;3.92;;;;;;;;;;5031663;28;20041;-70
2022/02/13 06:50:58;;;;;;;6.40;3.35;;;;;;;;;;5031564;28;20025;-70
2022/02/13 06:53:23;;;;;;;8.82;3.50;;;;;;;;;;5031614;28;20551;-70
2022/02/13 06:55:49;;;;;;;12.80;4.03;;;;;;;;;;5030674;28;20530;-70
2022/02/13 06:58:15;;;;;;;15.60;4.13;;;;;;;;;;5031768;28;20524;-70
2022/02/13 07:00:40;;;;;;;4.22;2.38;;;;;;;;;;5031680;28;20059;-70
2022/02/13 07:03:07;;;;;;;12.43;4.28;;;;;;;;;;5031034;28;20444;-70
2022/02/13 07:05:32;;;;;;;7.43;3.13;;;;;;;;;;5029811;28;20371;-70
2022/02/13 07:07:57;;;;;;;4.00;1.95;;;;;;;;;;5030473;28;20036;-70
2022/02/13 07:10:22;;;;;;;6.70;2.80;;;;;;;;;;5030887;28;20109;-70
2022/02/13 07:12:47;;;;;;;8.82;3.22;;;;;;;;;;5030415;28;20264;-70
2022/02/13 07:15:13;;;;;;;4.78;2.65;;;;;;;;;;5030424;28;20040;-70
2022/02/13 07:17:38;;;;;;;12.98;2.63;;;;;;;;;;5030000;28;20018;-70
2022/02/13 07:20:04;;;;;;;11.07;4.72;;;;;;;;;;5030737;28;20417;-70
2022/02/13 07:22:30;;;;;;;4.55;2.28;;;;;;;;;;5030802;28;20024;-70
2022/02/13 07:24:55;;;;;;;8.50;2.38;;;;;;;;;;5030664;28;20037;-70
2022/02/13 07:27:20;;;;;;;8.02;3.75;;;;;;;;;;5030707;28;20024;-70
2022/02/13 07:29:45;;;;;;;7.80;4.43;;;;;;;;;;5030565;28;20367;-70
2022/02/13 07:32:10;;;;;;;7.43;3.35;;;;;;;;;;5030775;28;20334;-70
2022/02/13 07:34:36;;;;;;;9.75;4.78;;;;;;;;;;5029799;28;20148;-70
2022/02/13 07:37:04;;;;;;;8.30;3.15;;;;;;;;;;5029236;28;20022;-68
2022/02/13 07:39:30;;;;;;;9.70;4.80;;;;;;;;;;5030866;28;20021;-70
2022/02/13 07:41:55;;;;;;;8.40;2.90;;;;;;;;;;5030184;28;20057;-69
2022/02/13 07:44:21;;;;;;;5.82;3.38;;;;;;;;;;5031191;28;20049;-69
2022/02/13 07:46:46;;;;;;;10.68;4.38;;;;;;;;;;5030175;28;20104;-69
2022/02/13 07:49:11;;;;;;;5.82;2.72;;;;;;;;;;5029877;28;20037;-69
2022/02/13 07:51:36;;;;;;;7.93;3.77;;;;;;;;;;5030433;28;20021;-69
2022/02/13 07:54:02;;;;;;;14.90;3.85;;;;;;;;;;5020801;28;20443;-69
2022/02/13 07:56:27;;;;;;;14.98;5.38;;;;;;;;;;5029185;28;20417;-69
2022/02/13 07:58:52;;;;;;;13.38;4.53;;;;;;;;;;5030193;28;20026;-69
2022/02/13 08:01:19;;;;;;;7.25;3.92;;;;;;;;;;5030582;28;20060;-70
2022/02/13 08:03:45;;;;;;;10.10;3.78;;;;;;;;;;5012240;28;20017;-70
2022/02/13 08:06:12;;;;;;;9.35;3.63;;;;;;;;;;5029119;28;20032;-70
2022/02/13 08:08:37;;;;;;;1.98;1.25;;;;;;;;;;5027700;28;20032;-70
2022/02/13 08:11:03;;;;;;;6.55;2.95;;;;;;;;;;5027699;28;20025;-70
2022/02/13 08:13:28;;;;;;;10.27;4.03;;;;;;;;;;5028350;28;20017;-70
2022/02/13 08:15:54;;;;;;;7.57;2.55;;;;;;;;;;5027036;28;20017;-70
2022/02/13 08:18:19;;;;;;;5.70;2.90;;;;;;;;;;5028707;28;20020;-70
2022/02/13 08:20:44;;;;;;;6.68;3.30;;;;;;;;;;5028191;28;20025;-70
2022/02/13 08:23:10;;;;;;;8.85;3.40;;;;;;;;;;5027701;28;20025;-70
2022/02/13 08:25:36;;;;;;;8.80;3.35;;;;;;;;;;5027193;28;20083;-70
2022/02/13 08:28:01;;;;;;;7.57;3.03;;;;;;;;;;5027777;28;20029;-70
2022/02/13 08:30:26;;;;;;;8.43;3.97;;;;;;;;;;5028289;28;20075;-70
2022/02/13 08:32:52;;;;;;;3.55;2.40;;;;;;;;;;5027733;28;20108;-70
2022/02/13 08:35:17;;;;;;;7.35;3.63;;;;;;;;;;5032273;28;20159;-71
2022/02/13 08:37:42;;;;;;;3.00;2.15;;;;;;;;;;5027143;28;20021;-70
2022/02/13 08:40:08;;;;;;;9.07;4.13;;;;;;;;;;5028052;28;20146;-70
2022/02/13 08:42:33;;;;;;;14.85;4.05;;;;;;;;;;5028150;28;20052;-70
2022/02/13 08:44:59;;;;;;;6.50;2.80;;;;;;;;;;5027751;28;20068;-70
2022/02/13 08:47:24;;;;;;;8.45;2.15;;;;;;;;;;5027651;28;20026;-71
2022/02/13 08:49:49;;;;;;;7.25;2.15;;;;;;;;;;5027973;28;20029;-70
2022/02/13 08:52:15;;;;;;;9.18;3.80;;;;;;;;;;5033568;28;20124;-70
2022/02/13 08:54:40;;;;;;;4.40;2.20;;;;;;;;;;5027474;28;20390;-70
2022/02/13 08:57:06;;;;;;;10.82;4.40;;;;;;;;;;5025401;28;20029;-70
2022/02/13 08:59:31;;;;;;;3.55;2.47;;;;;;;;;;5027566;28;20041;-70
2022/02/13 09:01:56;;;;;;;7.50;2.77;;;;;;;;;;5027640;28;20025;-71
2022/02/13 09:04:21;;;;;;;4.60;2.38;;;;;;;;;;5027779;28;20555;-70
2022/02/13 09:06:46;;;;;;;9.33;3.10;;;;;;;;;;5026500;28;20027;-70
2022/02/13 09:09:12;;;;;;;7.53;2.93;;;;;;;;;;5040096;28;20267;-71
2022/02/13 09:11:38;;;;;;;7.78;3.38;;;;;;;;;;5027901;28;20744;-71
2022/02/13 09:14:04;;;;;;;7.07;4.00;;;;;;;;;;5026810;28;20057;-71
2022/02/13 09:16:31;;;;;;;9.70;4.40;;;;;;;;;;5027518;28;20489;-71
2022/02/13 09:18:56;;;;;;;5.30;2.40;;;;;;;;;;5028864;28;20553;-73
2022/02/13 09:21:21;;;;;;;9.80;3.38;;;;;;;;;;5030491;28;20100;-71
2022/02/13 09:23:46;;;;;;;7.43;2.40;;;;;;;;;;5031283;28;20025;-73
2022/02/13 09:26:11;;;;;;;4.60;2.37;;;;;;;;;;5029882;28;20021;-72
2022/02/13 09:28:37;;;;;;;7.43;4.10;;;;;;;;;;5031507;28;20276;-73
2022/02/13 09:31:04;;;;;;;8.93;3.30;;;;;;;;;;5030166;28;20268;-72
2022/02/13 09:33:29;;;;;;;14.27;3.15;;;;;;;;;;5030411;28;20017;-72
2022/02/13 09:35:54;;;;;;;7.43;2.47;;;;;;;;;;5032236;28;20023;-71
2022/02/13 09:38:19;;;;;;;7.95;4.10;;;;;;;;;;5028552;28;20109;-71
2022/02/13 09:40:47;;;;;;;4.07;2.08;;;;;;;;;;5028324;28;20017;-73
2022/02/13 09:43:13;;;;;;;7.15;2.88;;;;;;;;;;5031030;28;20017;-73
2022/02/13 09:45:40;;;;;;;7.57;3.03;;;;;;;;;;5030397;28;20022;-72
2022/02/13 09:48:05;;;;;;;5.88;2.42;;;;;;;;;;5011472;28;20033;-73
2022/02/13 09:50:31;;;;;;;4.85;2.03;;;;;;;;;;5037167;28;20031;-73
2022/02/13 09:52:57;;;;;;;5.57;3.03;;;;;;;;;;5031749;28;20026;-73
2022/02/13 09:55:22;;;;;;;5.40;3.08;;;;;;;;;;5029554;28;20014;-73
2022/02/13 09:57:59;;;;;;;7.45;3.65;;;;;;;;;;5030217;28;20305;-72
2022/02/13 10:00:44;;;;;;;5.68;3.05;;;;;;;;;;5010738;28;20017;-72
2022/02/13 10:03:17;;;;;;;12.13;2.28;;;;;;;;;;5027467;28;20057;-72
2022/02/13 10:05:42;;;;;;;5.13;2.08;;;;;;;;;;5030052;28;20505;-73
2022/02/13 10:08:07;;;;;;;4.05;2.25;;;;;;;;;;5030132;28;20108;-73
2022/02/13 10:10:32;;;;;;;6.60;2.83;;;;;;;;;;5028808;28;20025;-70
2022/02/13 10:12:58;;;;;;;4.95;2.45;;;;;;;;;;5028874;28;20021;-73
2022/02/13 10:15:23;;;;;;;7.87;2.10;;;;;;;;;;5028339;28;20354;-73
2022/02/13 10:18:02;;;;;;;7.13;3.95;;;;;;;;;;5028289;28;20363;-73
2022/02/13 10:20:32;;;;;;;2.72;1.67;;;;;;;;;;5029798;28;20018;-73
2022/02/13 10:23:02;;;;;;;11.73;4.55;;;;;;;;;;5028472;28;20025;-72
2022/02/13 10:25:27;;;;;;;6.22;1.85;;;;;;;;;;5029653;28;20065;-72
2022/02/13 10:27:52;;;;;;;5.07;2.47;;;;;;;;;;5029311;28;20064;-73
2022/02/13 10:30:33;;;;;;;7.47;3.63;;;;;;;;;;5041671;28;20760;-73
2022/02/13 10:33:12;;;;;;;12.93;3.00;;;;;;;;;;5027253;28;20079;-73
2022/02/13 10:35:37;;;;;;;6.55;2.70;;;;;;;;;;5028873;28;20057;-73
2022/02/13 10:38:02;;;;;;;9.13;3.63;;;;;;;;;;5010705;28;20111;-73
2022/02/13 10:40:28;;;;;;;8.60;4.47;;;;;;;;;;5027252;28;21834;-72
2022/02/13 10:43:09;;;;;;;7.35;3.55;;;;;;;;;;5027835;28;20330;-73
2022/02/13 10:45:34;;;;;;;;;;;;;;;;;;5025568;28;20030;-73
2022/02/13 10:48:00;;;;;;;3.22;1.95;;;;;;;;;;5031368;28;20803;-73
2022/02/13 10:50:27;;;;;;;10.40;4.38;;;;;;;;;;5028679;28;20043;-73
2022/02/13 10:52:53;;;;;;;9.82;2.22;;;;;;;;;;5028001;28;20134;-73
2022/02/13 10:55:19;;;;;;;7.00;2.65;;;;;;;;;;5028941;28;20025;-73
2022/02/13 10:57:44;;;;;;;7.10;3.42;;;;;;;;;;5029707;28;20104;-73
2022/02/13 11:00:13;;;;;;;11.20;3.70;;;;;;;;;;5027923;28;20044;-74
2022/02/13 11:02:39;;;;;;;7.63;3.33;;;;;;;;;;5028192;28;20049;-72
2022/02/13 11:05:06;;;;;;;7.13;3.67;;;;;;;;;;5030957;28;20106;-73
2022/02/13 11:07:32;;;;;;;7.93;3.33;;;;;;;;;;5026929;28;20060;-73
2022/02/13 11:09:58;;;;;;;7.65;3.63;;;;;;;;;;5027403;28;20085;-73
2022/02/13 11:12:23;;;;;;;6.90;2.78;;;;;;;;;;5028350;28;20191;-73
2022/02/13 11:14:48;;;;;;;7.28;3.75;;;;;;;;;;5027055;28;20052;-71
2022/02/13 11:17:28;;;;;;;6.95;3.03;;;;;;;;;;5028636;28;20042;-73
2022/02/13 11:19:54;;;;;;;7.47;3.35;;;;;;;;;;5028648;28;20025;-73
2022/02/13 11:22:19;;;;;;;12.90;3.63;;;;;;;;;;5028208;28;20041;-73
2022/02/13 11:24:48;;;;;;;5.43;3.23;;;;;;;;;;5025724;28;20448;-73
2022/02/13 11:27:17;;;;;;;3.85;2.35;;;;;;;;;;5027239;28;20275;-73
2022/02/13 11:29:55;;;;;;;6.75;2.55;;;;;;;;;;5027678;28;20029;-73
2022/02/13 11:32:33;;;;;;;6.70;1.73;;;;;;;;;;5027431;28;20111;-73
2022/02/13 11:34:58;;;;;;;4.22;2.15;;;;;;;;;;5028559;28;20021;-73
2022/02/13 11:37:38;;;;;;;8.20;3.37;;;;;;;;;;5028155;28;20028;-73
2022/02/13 11:40:03;;;;;;;5.90;2.83;;;;;;;;;;5021618;28;20677;-74
2022/02/13 11:42:35;;;;;;;11.70;4.43;;;;;;;;;;5026371;28;20052;-73
2022/02/13 11:45:16;;;;;;;5.63;2.20;;;;;;;;;;5026563;28;20033;-71
2022/02/13 11:47:41;;;;;;;11.38;2.63;;;;;;;;;;5028160;28;20490;-73
2022/02/13 11:50:11;;;;;;;7.90;2.90;;;;;;;;;;5028471;28;20029;-72
2022/02/13 11:52:38;;;;;;;6.65;3.65;;;;;;;;;;5024914;28;20030;-71
2022/02/13 11:55:05;;;;;;;7.88;3.72;;;;;;;;;;5028995;28;20030;-71
2022/02/13 11:57:33;;;;;;;6.15;3.28;;;;;;;;;;5028548;28;20044;-71
2022/02/13 11:59:58;;;;;;;4.32;2.17;;;;;;;;;;5028695;28;20152;-71
2022/02/13 12:02:29;;;;;;;7.23;2.63;;;;;;;;;;5027648;28;20140;-71
2022/02/13 12:05:10;;;;;;;5.03;2.42;;;;;;;;;;5028653;28;20916;-74
2022/02/13 12:07:42;;;;;;;8.77;3.13;;;;;;;;;;5030102;28;20036;-74
2022/02/13 12:10:10;;;;;;;7.93;3.30;;;;;;;;;;5022727;28;20025;-72
2022/02/13 12:12:35;;;;;;;8.15;4.55;;;;;;;;;;5029833;28;20026;-73
2022/02/13 12:15:01;;;;;;;4.18;2.35;;;;;;;;;;5035397;28;20032;-72
2022/02/13 12:17:28;;;;;;;6.85;3.58;;;;;;;;;;5028556;28;20013;-71
2022/02/13 12:20:00;;;;;;;7.03;1.95;;;;;;;;;;5030213;28;20032;-71
2022/02/13 12:22:25;;;;;;;5.75;3.03;;;;;;;;;;5027192;28;20017;-71
2022/02/13 12:24:51;;;;;;;4.32;2.10;;;;;;;;;;5028299;28;20024;-72
2022/02/13 12:27:16;;;;;;;5.53;2.80;;;;;;;;;;5029597;28;20029;-71
2022/02/13 12:29:48;;;;;;;5.18;2.72;;;;;;;;;;5030252;28;20070;-72
2022/02/13 12:32:14;;;;;;;7.55;2.75;;;;;;;;;;5029814;28;20021;-71
2022/02/13 12:35:08;;;;;;;4.90;2.15;;;;;;;;;;5029837;28;20095;-71
2022/02/13 12:37:47;;;;;;;8.32;2.72;;;;;;;;;;4991065;28;20424;-71
2022/02/13 12:40:15;;;;;;;5.90;2.30;;;;;;;;;;5029309;28;20040;-72
2022/02/13 12:42:42;;;;;;;8.60;4.32;;;;;;;;;;5028096;28;20033;-72
2022/02/13 12:45:09;;;;;;;9.40;3.50;;;;;;;;;;5027789;28;20068;-72
2022/02/13 12:47:35;;;;;;;7.60;2.72;;;;;;;;;;5032161;28;20072;-71
2022/02/13 12:50:20;;;;;;;7.85;2.35;;;;;;;;;;5033093;28;20096;-71
2022/02/13 12:52:46;;;;;;;15.35;4.00;;;;;;;;;;5034002;28;20042;-71
2022/02/13 12:55:21;;;;;;;8.52;2.95;;;;;;;;;;5034220;28;20536;-72
2022/02/13 12:57:48;;;;;;;5.43;2.53;;;;;;;;;;5045504;28;20120;-74
2022/02/13 13:00:16;;;;;;;7.07;2.58;;;;;;;;;;5033258;28;20521;-72
2022/02/13 13:02:49;;;;;;;7.35;3.65;;;;;;;;;;5030538;28;20042;-71
2022/02/13 13:05:29;;;;;;;5.43;2.55;;;;;;;;;;5034704;28;20029;-74
2022/02/13 13:08:01;;;;;;;;;;;;;;;;;;5033981;28;20029;-75
2022/02/13 13:10:30;;;;;;;9.85;3.63;;;;;;;;;;5033344;28;19913;-74
2022/02/13 13:13:03;;;;;;;9.25;3.30;;;;;;;;;;5032920;28;20029;-73
2022/02/13 13:15:28;;;;;;;3.97;2.10;;;;;;;;;;5032899;28;20797;-74
2022/02/13 13:17:54;;;;;;;6.10;3.20;;;;;;;;;;5033242;28;20014;-74
2022/02/13 13:20:23;;;;;;;11.73;3.33;;;;;;;;;;5032983;28;20039;-76
2022/02/13 13:23:08;;;;;;;5.95;3.05;;;;;;;;;;5035478;28;20021;-73
2022/02/13 13:25:33;;;;;;;11.93;5.35;;;;;;;;;;5030863;28;20429;-73
2022/02/13 13:28:08;;;;;;;8.35;3.75;;;;;;;;;;5033549;28;20021;-73
2022/02/13 13:30:34;;;;;;;11.60;3.90;;;;;;;;;;5032822;28;20017;-73
2022/02/13 13:33:01;;;;;;;5.38;2.17;;;;;;;;;;5030892;28;20014;-75
2022/02/13 13:35:28;;;;;;;12.30;4.03;;;;;;;;;;5031004;28;20017;-73
2022/02/13 13:37:53;;;;;;;12.52;5.07;;;;;;;;;;5025155;28;20028;-76
2022/02/13 13:40:25;;;;;;;8.70;2.50;;;;;;;;;;5034370;28;20026;-73
2022/02/13 13:42:54;;;;;;;9.65;2.88;;;;;;;;;;5032812;28;20024;-75
2022/02/13 13:45:23;;;;;;;10.07;3.47;;;;;;;;;;5032326;28;20022;-79
2022/02/13 13:47:49;;;;;;;14.32;4.00;;;;;;;;;;5031312;28;20769;-72
2022/02/13 13:50:16;;;;;;;9.80;4.57;;;;;;;;;;5029619;28;20410;-72
2022/02/13 13:52:42;;;;;;;10.90;5.10;;;;;;;;;;5029631;28;20025;-73
2022/02/13 13:55:08;;;;;;;6.47;2.42;;;;;;;;;;5035564;28;20017;-74
2022/02/13 13:57:33;;;;;;;6.57;3.33;;;;;;;;;;5030681;28;20024;-75
2022/02/13 13:59:58;;;;;;;5.05;2.85;;;;;;;;;;5030397;28;20398;-71
2022/02/13 14:02:26;;;;;;;11.35;4.20;;;;;;;;;;5029402;28;20560;-72
2022/02/13 14:04:51;;;;;;;11.02;3.75;;;;;;;;;;5026482;28;20389;-74
2022/02/13 14:07:16;;;;;;;15.75;3.92;;;;;;;;;;5029965;28;20146;-74
2022/02/13 14:09:42;;;;;;;6.00;2.60;;;;;;;;;;5030561;28;20095;-72
2022/02/13 14:12:08;;;;;;;8.35;4.10;;;;;;;;;;5030588;28;20021;-72
2022/02/13 14:14:33;;;;;;;8.15;3.00;;;;;;;;;;5030351;28;20040;-72
2022/02/13 14:16:58;;;;;;;5.85;2.20;;;;;;;;;;5031053;28;20025;-73
2022/02/13 14:19:24;;;;;;;8.25;4.72;;;;;;;;;;5029953;28;20044;-72
2022/02/13 14:21:49;;;;;;;12.43;6.20;;;;;;;;;;5029853;28;20022;-70
2022/02/13 14:24:14;;;;;;;8.43;4.25;;;;;;;;;;5030317;28;20268;-73
2022/02/13 14:26:39;;;;;;;6.97;3.28;;;;;;;;;;5028500;28;20052;-72
2022/02/13 14:29:05;;;;;;;18.50;4.45;;;;;;;;;;5029579;28;20033;-73
2022/02/13 14:31:30;;;;;;;15.20;4.30;;;;;;;;;;5028881;28;20044;-73
2022/02/13 14:33:55;;;;;;;7.95;2.45;;;;;;;;;;5031706;28;20025;-74
2022/02/13 14:36:20;;;;;;;9.20;2.67;;;;;;;;;;5029468;28;20030;-74